sensor_id;sensor_type;location;lat;lon;timestamp;P1;durP1;ratioP1;P2;durP2;ratioP2
14554;SDS011;7364;50.870;4.722;2023-03-01T00:01:02;11.40;;;9.30;;
14554;SDS011;7364;50.870;4.722;2023-03-01T00:03:33;12.43;;;9.17;;
14554;SDS011;7364;50.870;4.722;2023-03-01T00:06:02;11.03;;;8.87;;
14554;SDS011;7364;50.870;4.722;2023-03-01T00:08:30;16.40;;;10.77;;
14554;SDS011;7364;50.870;4.722;2023-03-01T00:11:03;12.53;;;9.70;;
14554;SDS011;7364;50.870;4.722;2023-03-01T00:13:32;15.13;;;9.80;;
14554;SDS011;7364;50.870;4.722;2023-03-01T00:16:01;13.30;;;10.27;;
14554;SDS011;7364;50.870;4.722;2023-03-01T00:18:29;14.60;;;9.63;;
14554;SDS011;7364;50.870;4.722;2023-03-01T00:20:58;15.90;;;10.57;;
14554;SDS011;7364;50.870;4.722;2023-03-01T00:23:25;13.10;;;9.60;;
14554;SDS011;7364;50.870;4.722;2023-03-01T00:25:53;14.83;;;9.70;;
14554;SDS011;7364;50.870;4.722;2023-03-01T00:28:21;12.73;;;9.17;;
14554;SDS011;7364;50.870;4.722;2023-03-01T00:30:51;14.20;;;10.37;;
14554;SDS011;7364;50.870;4.722;2023-03-01T00:33:19;10.67;;;9.27;;
14554;SDS011;7364;50.870;4.722;2023-03-01T00:35:46;11.77;;;10.53;;
14554;SDS011;7364;50.870;4.722;2023-03-01T00:38:15;15.37;;;9.37;;
14554;SDS011;7364;50.870;4.722;2023-03-01T00:40:42;15.20;;;10.30;;
14554;SDS011;7364;50.870;4.722;2023-03-01T00:43:09;12.53;;;10.73;;
14554;SDS011;7364;50.870;4.722;2023-03-01T00:45:36;13.80;;;10.37;;
14554;SDS011;7364;50.870;4.722;2023-03-01T00:48:04;11.47;;;9.20;;
14554;SDS011;7364;50.870;4.722;2023-03-01T00:53:07;12.13;;;10.63;;
14554;SDS011;7364;50.870;4.722;2023-03-01T00:55:37;12.97;;;8.97;;
14554;SDS011;7364;50.870;4.722;2023-03-01T00:58:05;10.20;;;8.43;;
14554;SDS011;7364;50.870;4.722;2023-03-01T01:00:32;14.70;;;10.57;;
14554;SDS011;7364;50.870;4.722;2023-03-01T01:02:59;13.13;;;9.53;;
14554;SDS011;7364;50.870;4.722;2023-03-01T01:05:26;12.63;;;9.40;;
14554;SDS011;7364;50.870;4.722;2023-03-01T01:07:54;12.30;;;10.30;;
14554;SDS011;7364;50.870;4.722;2023-03-01T01:10:24;12.10;;;8.97;;
14554;SDS011;7364;50.870;4.722;2023-03-01T01:12:53;13.60;;;9.97;;
14554;SDS011;7364;50.870;4.722;2023-03-01T01:15:21;14.47;;;10.40;;
14554;SDS011;7364;50.870;4.722;2023-03-01T01:17:48;13.40;;;10.53;;
14554;SDS011;7364;50.870;4.722;2023-03-01T01:20:16;12.83;;;10.67;;
14554;SDS011;7364;50.870;4.722;2023-03-01T01:22:43;13.83;;;10.10;;
14554;SDS011;7364;50.870;4.722;2023-03-01T01:25:11;14.47;;;10.50;;
14554;SDS011;7364;50.870;4.722;2023-03-01T01:27:38;15.00;;;10.30;;
14554;SDS011;7364;50.870;4.722;2023-03-01T01:30:07;13.93;;;10.23;;
14554;SDS011;7364;50.870;4.722;2023-03-01T01:32:35;12.70;;;10.13;;
14554;SDS011;7364;50.870;4.722;2023-03-01T01:35:03;14.93;;;9.97;;
14554;SDS011;7364;50.870;4.722;2023-03-01T01:37:30;13.33;;;11.27;;
14554;SDS011;7364;50.870;4.722;2023-03-01T01:39:58;12.87;;;10.47;;
14554;SDS011;7364;50.870;4.722;2023-03-01T01:42:25;14.93;;;11.10;;
14554;SDS011;7364;50.870;4.722;2023-03-01T01:48:04;13.63;;;9.30;;
14554;SDS011;7364;50.870;4.722;2023-03-01T01:50:38;13.93;;;10.30;;
14554;SDS011;7364;50.870;4.722;2023-03-01T01:53:08;12.83;;;10.67;;
14554;SDS011;7364;50.870;4.722;2023-03-01T01:55:39;11.30;;;9.13;;
14554;SDS011;7364;50.870;4.722;2023-03-01T01:58:09;18.63;;;8.90;;
14554;SDS011;7364;50.870;4.722;2023-03-01T02:00:40;11.83;;;9.13;;
14554;SDS011;7364;50.870;4.722;2023-03-01T02:03:10;10.33;;;8.43;;
14554;SDS011;7364;50.870;4.722;2023-03-01T02:05:43;9.67;;;8.07;;
14554;SDS011;7364;50.870;4.722;2023-03-01T02:08:16;11.70;;;8.63;;
14554;SDS011;7364;50.870;4.722;2023-03-01T02:10:45;10.97;;;8.07;;
14554;SDS011;7364;50.870;4.722;2023-03-01T02:13:14;13.27;;;8.37;;
14554;SDS011;7364;50.870;4.722;2023-03-01T02:15:42;12.77;;;8.60;;
14554;SDS011;7364;50.870;4.722;2023-03-01T02:18:11;14.60;;;8.73;;
14554;SDS011;7364;50.870;4.722;2023-03-01T02:20:44;10.63;;;8.87;;
14554;SDS011;7364;50.870;4.722;2023-03-01T02:23:22;11.73;;;8.50;;
14554;SDS011;7364;50.870;4.722;2023-03-01T02:25:52;13.70;;;9.10;;
14554;SDS011;7364;50.870;4.722;2023-03-01T02:28:25;12.07;;;8.80;;
14554;SDS011;7364;50.870;4.722;2023-03-01T02:30:56;11.37;;;8.53;;
14554;SDS011;7364;50.870;4.722;2023-03-01T02:33:41;11.10;;;8.77;;
14554;SDS011;7364;50.870;4.722;2023-03-01T02:36:12;11.80;;;8.70;;
14554;SDS011;7364;50.870;4.722;2023-03-01T02:38:43;11.30;;;8.13;;
14554;SDS011;7364;50.870;4.722;2023-03-01T02:41:11;15.17;;;9.57;;
14554;SDS011;7364;50.870;4.722;2023-03-01T02:43:43;14.53;;;9.53;;
14554;SDS011;7364;50.870;4.722;2023-03-01T02:46:13;12.27;;;9.30;;
14554;SDS011;7364;50.870;4.722;2023-03-01T02:48:45;11.87;;;9.70;;
14554;SDS011;7364;50.870;4.722;2023-03-01T02:51:17;13.83;;;9.07;;
14554;SDS011;7364;50.870;4.722;2023-03-01T02:53:56;11.93;;;9.90;;
14554;SDS011;7364;50.870;4.722;2023-03-01T02:56:32;13.37;;;10.17;;
14554;SDS011;7364;50.870;4.722;2023-03-01T02:59:02;13.10;;;9.83;;
14554;SDS011;7364;50.870;4.722;2023-03-01T03:01:30;13.40;;;9.43;;
14554;SDS011;7364;50.870;4.722;2023-03-01T03:04:03;13.57;;;9.50;;
14554;SDS011;7364;50.870;4.722;2023-03-01T03:06:31;12.17;;;9.70;;
14554;SDS011;7364;50.870;4.722;2023-03-01T03:09:00;14.70;;;9.90;;
14554;SDS011;7364;50.870;4.722;2023-03-01T03:11:27;11.97;;;9.10;;
14554;SDS011;7364;50.870;4.722;2023-03-01T03:13:55;12.47;;;10.50;;
14554;SDS011;7364;50.870;4.722;2023-03-01T03:16:24;12.23;;;10.23;;
14554;SDS011;7364;50.870;4.722;2023-03-01T03:18:51;15.03;;;10.27;;
14554;SDS011;7364;50.870;4.722;2023-03-01T03:21:19;12.10;;;9.77;;
14554;SDS011;7364;50.870;4.722;2023-03-01T03:23:46;15.80;;;10.97;;
14554;SDS011;7364;50.870;4.722;2023-03-01T03:26:13;10.40;;;9.30;;
14554;SDS011;7364;50.870;4.722;2023-03-01T03:28:41;18.63;;;10.13;;
14554;SDS011;7364;50.870;4.722;2023-03-01T03:31:08;17.70;;;9.67;;
14554;SDS011;7364;50.870;4.722;2023-03-01T03:33:36;15.87;;;9.43;;
14554;SDS011;7364;50.870;4.722;2023-03-01T03:36:04;13.73;;;9.23;;
14554;SDS011;7364;50.870;4.722;2023-03-01T03:38:32;11.67;;;9.13;;
14554;SDS011;7364;50.870;4.722;2023-03-01T03:41:00;10.57;;;8.53;;
14554;SDS011;7364;50.870;4.722;2023-03-01T03:43:29;12.87;;;10.20;;
14554;SDS011;7364;50.870;4.722;2023-03-01T03:45:58;18.50;;;10.10;;
14554;SDS011;7364;50.870;4.722;2023-03-01T03:48:25;14.17;;;9.03;;
14554;SDS011;7364;50.870;4.722;2023-03-01T03:50:55;14.70;;;9.57;;
14554;SDS011;7364;50.870;4.722;2023-03-01T03:53:23;10.20;;;8.60;;
14554;SDS011;7364;50.870;4.722;2023-03-01T03:55:51;11.53;;;9.73;;
14554;SDS011;7364;50.870;4.722;2023-03-01T03:58:20;9.77;;;8.50;;
14554;SDS011;7364;50.870;4.722;2023-03-01T04:00:50;14.17;;;9.37;;
14554;SDS011;7364;50.870;4.722;2023-03-01T04:03:19;14.00;;;9.40;;
14554;SDS011;7364;50.870;4.722;2023-03-01T04:05:47;12.10;;;8.57;;
14554;SDS011;7364;50.870;4.722;2023-03-01T04:08:17;11.23;;;8.70;;
14554;SDS011;7364;50.870;4.722;2023-03-01T04:10:47;12.03;;;8.80;;
14554;SDS011;7364;50.870;4.722;2023-03-01T04:13:18;12.87;;;8.77;;
14554;SDS011;7364;50.870;4.722;2023-03-01T04:15:47;13.30;;;9.00;;
14554;SDS011;7364;50.870;4.722;2023-03-01T04:18:16;11.67;;;8.70;;
14554;SDS011;7364;50.870;4.722;2023-03-01T04:20:44;12.13;;;8.97;;
14554;SDS011;7364;50.870;4.722;2023-03-01T04:23:12;11.40;;;9.03;;
14554;SDS011;7364;50.870;4.722;2023-03-01T04:25:45;14.27;;;8.93;;
14554;SDS011;7364;50.870;4.722;2023-03-01T04:28:14;17.60;;;8.97;;
14554;SDS011;7364;50.870;4.722;2023-03-01T04:30:42;13.87;;;8.23;;
14554;SDS011;7364;50.870;4.722;2023-03-01T04:33:10;10.33;;;8.63;;
14554;SDS011;7364;50.870;4.722;2023-03-01T04:35:38;13.13;;;8.97;;
14554;SDS011;7364;50.870;4.722;2023-03-01T04:38:05;15.03;;;9.03;;
14554;SDS011;7364;50.870;4.722;2023-03-01T04:40:33;12.40;;;8.87;;
14554;SDS011;7364;50.870;4.722;2023-03-01T04:43:03;12.70;;;8.73;;
14554;SDS011;7364;50.870;4.722;2023-03-01T04:45:31;11.97;;;8.33;;
14554;SDS011;7364;50.870;4.722;2023-03-01T04:48:01;14.70;;;9.17;;
14554;SDS011;7364;50.870;4.722;2023-03-01T04:50:29;12.20;;;9.60;;
14554;SDS011;7364;50.870;4.722;2023-03-01T04:52:56;12.57;;;7.73;;
14554;SDS011;7364;50.870;4.722;2023-03-01T04:55:25;14.10;;;9.47;;
14554;SDS011;7364;50.870;4.722;2023-03-01T04:57:52;12.00;;;8.40;;
14554;SDS011;7364;50.870;4.722;2023-03-01T05:00:22;10.80;;;7.97;;
14554;SDS011;7364;50.870;4.722;2023-03-01T05:02:51;10.53;;;9.03;;
14554;SDS011;7364;50.870;4.722;2023-03-01T05:05:20;11.60;;;8.27;;
14554;SDS011;7364;50.870;4.722;2023-03-01T05:07:51;13.83;;;8.77;;
14554;SDS011;7364;50.870;4.722;2023-03-01T05:10:22;14.50;;;8.87;;
14554;SDS011;7364;50.870;4.722;2023-03-01T05:12:50;11.77;;;8.27;;
14554;SDS011;7364;50.870;4.722;2023-03-01T05:15:18;12.17;;;8.83;;
14554;SDS011;7364;50.870;4.722;2023-03-01T05:17:48;13.97;;;9.30;;
14554;SDS011;7364;50.870;4.722;2023-03-01T05:20:16;17.70;;;10.43;;
14554;SDS011;7364;50.870;4.722;2023-03-01T05:22:48;12.90;;;9.20;;
14554;SDS011;7364;50.870;4.722;2023-03-01T05:25:15;14.37;;;9.57;;
14554;SDS011;7364;50.870;4.722;2023-03-01T05:27:43;14.07;;;9.00;;
14554;SDS011;7364;50.870;4.722;2023-03-01T05:30:11;13.83;;;10.30;;
14554;SDS011;7364;50.870;4.722;2023-03-01T05:32:46;13.87;;;9.57;;
14554;SDS011;7364;50.870;4.722;2023-03-01T05:35:21;15.10;;;9.30;;
14554;SDS011;7364;50.870;4.722;2023-03-01T05:37:49;14.23;;;10.00;;
14554;SDS011;7364;50.870;4.722;2023-03-01T05:40:18;14.10;;;9.93;;
14554;SDS011;7364;50.870;4.722;2023-03-01T05:42:47;18.53;;;10.13;;
14554;SDS011;7364;50.870;4.722;2023-03-01T05:45:17;15.20;;;10.70;;
14554;SDS011;7364;50.870;4.722;2023-03-01T05:47:44;12.87;;;8.70;;
14554;SDS011;7364;50.870;4.722;2023-03-01T05:50:16;12.07;;;8.90;;
14554;SDS011;7364;50.870;4.722;2023-03-01T05:52:45;13.03;;;9.80;;
14554;SDS011;7364;50.870;4.722;2023-03-01T05:55:14;12.70;;;9.03;;
14554;SDS011;7364;50.870;4.722;2023-03-01T05:57:42;17.13;;;9.60;;
14554;SDS011;7364;50.870;4.722;2023-03-01T06:00:10;15.80;;;8.87;;
14554;SDS011;7364;50.870;4.722;2023-03-01T06:02:38;9.87;;;8.40;;
14554;SDS011;7364;50.870;4.722;2023-03-01T06:05:06;15.20;;;8.93;;
14554;SDS011;7364;50.870;4.722;2023-03-01T06:07:37;14.33;;;9.00;;
14554;SDS011;7364;50.870;4.722;2023-03-01T06:10:05;12.43;;;9.13;;
14554;SDS011;7364;50.870;4.722;2023-03-01T06:12:36;12.73;;;9.43;;
14554;SDS011;7364;50.870;4.722;2023-03-01T06:15:04;14.10;;;9.00;;
14554;SDS011;7364;50.870;4.722;2023-03-01T06:17:35;13.43;;;9.23;;
14554;SDS011;7364;50.870;4.722;2023-03-01T06:20:04;12.33;;;10.10;;
14554;SDS011;7364;50.870;4.722;2023-03-01T06:22:33;14.43;;;9.20;;
14554;SDS011;7364;50.870;4.722;2023-03-01T06:25:02;13.07;;;10.47;;
14554;SDS011;7364;50.870;4.722;2023-03-01T06:27:30;19.30;;;11.20;;
14554;SDS011;7364;50.870;4.722;2023-03-01T06:29:58;11.00;;;8.57;;
14554;SDS011;7364;50.870;4.722;2023-03-01T06:32:25;10.30;;;8.50;;
14554;SDS011;7364;50.870;4.722;2023-03-01T06:34:52;10.53;;;8.30;;
14554;SDS011;7364;50.870;4.722;2023-03-01T06:37:20;11.73;;;8.07;;
14554;SDS011;7364;50.870;4.722;2023-03-01T06:39:47;13.63;;;9.37;;
14554;SDS011;7364;50.870;4.722;2023-03-01T06:42:15;10.57;;;9.30;;
14554;SDS011;7364;50.870;4.722;2023-03-01T06:44:45;14.93;;;10.10;;
14554;SDS011;7364;50.870;4.722;2023-03-01T06:47:13;13.40;;;8.70;;
14554;SDS011;7364;50.870;4.722;2023-03-01T06:49:40;12.00;;;9.27;;
14554;SDS011;7364;50.870;4.722;2023-03-01T06:52:07;15.23;;;9.20;;
14554;SDS011;7364;50.870;4.722;2023-03-01T06:54:35;12.70;;;9.20;;
14554;SDS011;7364;50.870;4.722;2023-03-01T06:57:02;15.30;;;8.53;;
14554;SDS011;7364;50.870;4.722;2023-03-01T06:59:31;11.87;;;8.83;;
14554;SDS011;7364;50.870;4.722;2023-03-01T07:01:58;14.43;;;10.17;;
14554;SDS011;7364;50.870;4.722;2023-03-01T07:04:25;13.33;;;9.80;;
14554;SDS011;7364;50.870;4.722;2023-03-01T07:06:53;10.30;;;9.20;;
14554;SDS011;7364;50.870;4.722;2023-03-01T07:09:21;18.63;;;10.80;;
14554;SDS011;7364;50.870;4.722;2023-03-01T07:11:49;12.20;;;9.50;;
14554;SDS011;7364;50.870;4.722;2023-03-01T07:14:16;14.83;;;10.17;;
14554;SDS011;7364;50.870;4.722;2023-03-01T07:16:46;12.70;;;9.53;;
14554;SDS011;7364;50.870;4.722;2023-03-01T07:19:13;15.20;;;9.67;;
14554;SDS011;7364;50.870;4.722;2023-03-01T07:21:40;12.83;;;10.07;;
14554;SDS011;7364;50.870;4.722;2023-03-01T07:24:08;15.67;;;10.33;;
14554;SDS011;7364;50.870;4.722;2023-03-01T07:26:35;12.53;;;10.37;;
14554;SDS011;7364;50.870;4.722;2023-03-01T07:29:04;15.50;;;9.03;;
14554;SDS011;7364;50.870;4.722;2023-03-01T07:31:33;14.73;;;10.60;;
14554;SDS011;7364;50.870;4.722;2023-03-01T07:34:02;18.50;;;9.47;;
14554;SDS011;7364;50.870;4.722;2023-03-01T07:36:29;14.07;;;9.93;;
14554;SDS011;7364;50.870;4.722;2023-03-01T07:38:56;10.93;;;8.77;;
14554;SDS011;7364;50.870;4.722;2023-03-01T07:41:24;13.53;;;9.77;;
14554;SDS011;7364;50.870;4.722;2023-03-01T07:43:51;12.97;;;9.50;;
14554;SDS011;7364;50.870;4.722;2023-03-01T07:46:19;14.53;;;9.67;;
14554;SDS011;7364;50.870;4.722;2023-03-01T07:48:46;13.13;;;10.13;;
14554;SDS011;7364;50.870;4.722;2023-03-01T07:51:15;13.00;;;9.60;;
14554;SDS011;7364;50.870;4.722;2023-03-01T07:53:45;11.47;;;9.07;;
14554;SDS011;7364;50.870;4.722;2023-03-01T07:56:13;11.67;;;9.57;;
14554;SDS011;7364;50.870;4.722;2023-03-01T07:58:43;14.00;;;9.13;;
14554;SDS011;7364;50.870;4.722;2023-03-01T08:01:12;15.53;;;9.27;;
14554;SDS011;7364;50.870;4.722;2023-03-01T08:03:41;16.00;;;10.40;;
14554;SDS011;7364;50.870;4.722;2023-03-01T08:06:09;13.77;;;9.67;;
14554;SDS011;7364;50.870;4.722;2023-03-01T08:08:39;14.57;;;8.83;;
14554;SDS011;7364;50.870;4.722;2023-03-01T08:11:07;11.33;;;9.10;;
14554;SDS011;7364;50.870;4.722;2023-03-01T08:13:37;14.80;;;9.80;;
14554;SDS011;7364;50.870;4.722;2023-03-01T08:16:05;11.57;;;8.43;;
14554;SDS011;7364;50.870;4.722;2023-03-01T08:18:34;20.53;;;12.50;;
14554;SDS011;7364;50.870;4.722;2023-03-01T08:21:02;18.10;;;13.17;;
14554;SDS011;7364;50.870;4.722;2023-03-01T08:23:30;16.00;;;11.07;;
14554;SDS011;7364;50.870;4.722;2023-03-01T08:26:04;13.33;;;10.60;;
14554;SDS011;7364;50.870;4.722;2023-03-01T08:28:32;11.93;;;9.67;;
14554;SDS011;7364;50.870;4.722;2023-03-01T08:31:00;15.33;;;9.47;;
14554;SDS011;7364;50.870;4.722;2023-03-01T08:33:28;18.73;;;10.43;;
14554;SDS011;7364;50.870;4.722;2023-03-01T08:36:02;19.07;;;10.33;;
14554;SDS011;7364;50.870;4.722;2023-03-01T08:38:32;13.47;;;9.80;;
14554;SDS011;7364;50.870;4.722;2023-03-01T08:40:59;12.17;;;9.77;;
14554;SDS011;7364;50.870;4.722;2023-03-01T08:43:29;14.10;;;9.57;;
14554;SDS011;7364;50.870;4.722;2023-03-01T08:45:56;12.67;;;10.43;;
14554;SDS011;7364;50.870;4.722;2023-03-01T08:48:24;14.13;;;10.23;;
14554;SDS011;7364;50.870;4.722;2023-03-01T08:50:53;12.17;;;10.23;;
14554;SDS011;7364;50.870;4.722;2023-03-01T08:53:21;14.10;;;9.30;;
14554;SDS011;7364;50.870;4.722;2023-03-01T08:55:48;15.23;;;10.97;;
14554;SDS011;7364;50.870;4.722;2023-03-01T08:58:15;14.27;;;9.93;;
14554;SDS011;7364;50.870;4.722;2023-03-01T09:00:46;13.00;;;10.37;;
14554;SDS011;7364;50.870;4.722;2023-03-01T09:03:16;13.83;;;9.77;;
14554;SDS011;7364;50.870;4.722;2023-03-01T09:05:44;18.20;;;9.60;;
14554;SDS011;7364;50.870;4.722;2023-03-01T09:08:11;16.50;;;10.23;;
14554;SDS011;7364;50.870;4.722;2023-03-01T09:10:38;13.80;;;9.93;;
14554;SDS011;7364;50.870;4.722;2023-03-01T09:13:05;12.60;;;9.77;;
14554;SDS011;7364;50.870;4.722;2023-03-01T09:15:33;12.87;;;9.97;;
14554;SDS011;7364;50.870;4.722;2023-03-01T09:18:01;12.93;;;10.53;;
14554;SDS011;7364;50.870;4.722;2023-03-01T09:20:29;14.80;;;9.57;;
14554;SDS011;7364;50.870;4.722;2023-03-01T09:22:58;17.57;;;10.07;;
14554;SDS011;7364;50.870;4.722;2023-03-01T09:25:25;15.83;;;9.97;;
14554;SDS011;7364;50.870;4.722;2023-03-01T09:27:53;15.73;;;10.57;;
14554;SDS011;7364;50.870;4.722;2023-03-01T09:30:21;14.13;;;10.40;;
14554;SDS011;7364;50.870;4.722;2023-03-01T09:32:49;16.07;;;9.63;;
14554;SDS011;7364;50.870;4.722;2023-03-01T09:35:19;12.63;;;10.03;;
14554;SDS011;7364;50.870;4.722;2023-03-01T09:37:48;13.90;;;10.67;;
14554;SDS011;7364;50.870;4.722;2023-03-01T09:40:16;12.43;;;9.57;;
14554;SDS011;7364;50.870;4.722;2023-03-01T09:42:56;16.73;;;9.13;;
14554;SDS011;7364;50.870;4.722;2023-03-01T09:45:30;15.13;;;9.80;;
14554;SDS011;7364;50.870;4.722;2023-03-01T09:48:01;10.23;;;8.77;;
14554;SDS011;7364;50.870;4.722;2023-03-01T09:50:33;9.80;;;8.73;;
14554;SDS011;7364;50.870;4.722;2023-03-01T09:53:05;12.83;;;8.60;;
14554;SDS011;7364;50.870;4.722;2023-03-01T09:55:37;10.83;;;8.83;;
14554;SDS011;7364;50.870;4.722;2023-03-01T09:58:18;12.70;;;8.73;;
14554;SDS011;7364;50.870;4.722;2023-03-01T10:01:19;12.87;;;8.87;;
14554;SDS011;7364;50.870;4.722;2023-03-01T10:04:01;14.70;;;9.87;;
14554;SDS011;7364;50.870;4.722;2023-03-01T10:06:39;7.67;;;6.97;;
14554;SDS011;7364;50.870;4.722;2023-03-01T10:09:14;10.73;;;8.93;;
14554;SDS011;7364;50.870;4.722;2023-03-01T10:11:44;10.10;;;9.10;;
14554;SDS011;7364;50.870;4.722;2023-03-01T10:14:15;9.03;;;7.77;;
14554;SDS011;7364;50.870;4.722;2023-03-01T10:16:55;9.67;;;8.67;;
14554;SDS011;7364;50.870;4.722;2023-03-01T10:19:29;10.87;;;9.40;;
14554;SDS011;7364;50.870;4.722;2023-03-01T10:22:04;10.90;;;9.77;;
14554;SDS011;7364;50.870;4.722;2023-03-01T10:24:37;12.03;;;8.60;;
14554;SDS011;7364;50.870;4.722;2023-03-01T10:27:05;11.20;;;9.27;;
14554;SDS011;7364;50.870;4.722;2023-03-01T10:29:39;11.27;;;9.43;;
14554;SDS011;7364;50.870;4.722;2023-03-01T10:32:13;13.20;;;9.37;;
14554;SDS011;7364;50.870;4.722;2023-03-01T10:34:40;11.73;;;8.93;;
14554;SDS011;7364;50.870;4.722;2023-03-01T10:37:10;11.57;;;9.43;;
14554;SDS011;7364;50.870;4.722;2023-03-01T10:39:54;11.10;;;9.57;;
14554;SDS011;7364;50.870;4.722;2023-03-01T10:42:31;13.53;;;9.70;;
14554;SDS011;7364;50.870;4.722;2023-03-01T10:45:14;9.33;;;8.20;;
14554;SDS011;7364;50.870;4.722;2023-03-01T10:47:44;10.00;;;8.40;;
14554;SDS011;7364;50.870;4.722;2023-03-01T10:50:20;13.77;;;8.93;;
14554;SDS011;7364;50.870;4.722;2023-03-01T10:52:57;13.70;;;9.13;;
14554;SDS011;7364;50.870;4.722;2023-03-01T10:55:27;9.77;;;8.57;;
14554;SDS011;7364;50.870;4.722;2023-03-01T10:58:06;9.80;;;8.80;;
14554;SDS011;7364;50.870;4.722;2023-03-01T11:00:49;11.17;;;9.70;;
14554;SDS011;7364;50.870;4.722;2023-03-01T11:03:21;15.83;;;9.40;;
14554;SDS011;7364;50.870;4.722;2023-03-01T11:05:50;13.40;;;9.13;;
14554;SDS011;7364;50.870;4.722;2023-03-01T11:08:35;12.00;;;9.47;;
14554;SDS011;7364;50.870;4.722;2023-03-01T11:11:05;13.00;;;8.93;;
14554;SDS011;7364;50.870;4.722;2023-03-01T11:13:39;11.67;;;8.83;;
14554;SDS011;7364;50.870;4.722;2023-03-01T11:16:23;11.50;;;8.83;;
14554;SDS011;7364;50.870;4.722;2023-03-01T11:19:00;13.90;;;9.40;;
14554;SDS011;7364;50.870;4.722;2023-03-01T11:21:41;11.07;;;8.80;;
14554;SDS011;7364;50.870;4.722;2023-03-01T11:24:18;12.40;;;8.80;;
14554;SDS011;7364;50.870;4.722;2023-03-01T11:26:47;11.67;;;8.37;;
14554;SDS011;7364;50.870;4.722;2023-03-01T11:29:21;10.03;;;8.23;;
14554;SDS011;7364;50.870;4.722;2023-03-01T11:31:57;10.23;;;8.27;;
14554;SDS011;7364;50.870;4.722;2023-03-01T11:34:32;10.97;;;7.83;;
14554;SDS011;7364;50.870;4.722;2023-03-01T11:37:16;8.10;;;7.13;;
14554;SDS011;7364;50.870;4.722;2023-03-01T11:39:53;9.80;;;7.90;;
14554;SDS011;7364;50.870;4.722;2023-03-01T11:42:31;11.83;;;8.70;;
14554;SDS011;7364;50.870;4.722;2023-03-01T11:45:12;10.00;;;8.63;;
14554;SDS011;7364;50.870;4.722;2023-03-01T11:47:44;9.07;;;7.87;;
14554;SDS011;7364;50.870;4.722;2023-03-01T11:50:35;11.07;;;8.00;;
14554;SDS011;7364;50.870;4.722;2023-03-01T11:56:21;13.07;;;9.00;;
14554;SDS011;7364;50.870;4.722;2023-03-01T12:02:12;11.20;;;8.90;;
14554;SDS011;7364;50.870;4.722;2023-03-01T12:08:10;14.30;;;9.43;;
14554;SDS011;7364;50.870;4.722;2023-03-01T12:10:44;10.47;;;9.13;;
14554;SDS011;7364;50.870;4.722;2023-03-01T12:13:36;10.57;;;9.03;;
14554;SDS011;7364;50.870;4.722;2023-03-01T12:16:31;9.30;;;8.27;;
14554;SDS011;7364;50.870;4.722;2023-03-01T12:19:19;16.13;;;8.73;;
14554;SDS011;7364;50.870;4.722;2023-03-01T12:22:04;11.53;;;9.43;;
14554;SDS011;7364;50.870;4.722;2023-03-01T12:24:44;10.10;;;9.20;;
14554;SDS011;7364;50.870;4.722;2023-03-01T12:27:31;10.57;;;9.20;;
14554;SDS011;7364;50.870;4.722;2023-03-01T12:30:18;10.40;;;8.40;;
14554;SDS011;7364;50.870;4.722;2023-03-01T12:32:56;10.80;;;9.20;;
14554;SDS011;7364;50.870;4.722;2023-03-01T12:35:36;11.20;;;8.77;;
14554;SDS011;7364;50.870;4.722;2023-03-01T12:38:32;11.03;;;8.97;;
14554;SDS011;7364;50.870;4.722;2023-03-01T12:41:12;14.90;;;9.67;;
14554;SDS011;7364;50.870;4.722;2023-03-01T12:43:58;9.67;;;8.77;;
14554;SDS011;7364;50.870;4.722;2023-03-01T12:46:39;9.30;;;8.30;;
14554;SDS011;7364;50.870;4.722;2023-03-01T12:49:19;10.30;;;9.17;;
14554;SDS011;7364;50.870;4.722;2023-03-01T12:51:51;13.87;;;8.67;;
14554;SDS011;7364;50.870;4.722;2023-03-01T12:54:24;11.07;;;9.07;;
14554;SDS011;7364;50.870;4.722;2023-03-01T12:56:55;13.63;;;9.53;;
14554;SDS011;7364;50.870;4.722;2023-03-01T12:59:24;11.20;;;8.93;;
14554;SDS011;7364;50.870;4.722;2023-03-01T13:02:02;12.80;;;9.47;;
14554;SDS011;7364;50.870;4.722;2023-03-01T13:04:40;9.37;;;8.33;;
14554;SDS011;7364;50.870;4.722;2023-03-01T13:07:25;9.53;;;7.37;;
14554;SDS011;7364;50.870;4.722;2023-03-01T13:10:01;12.33;;;9.17;;
14554;SDS011;7364;50.870;4.722;2023-03-01T13:12:44;10.87;;;9.03;;
14554;SDS011;7364;50.870;4.722;2023-03-01T13:15:27;8.67;;;7.77;;
14554;SDS011;7364;50.870;4.722;2023-03-01T13:18:02;10.30;;;8.40;;
14554;SDS011;7364;50.870;4.722;2023-03-01T13:20:32;13.90;;;9.03;;
14554;SDS011;7364;50.870;4.722;2023-03-01T13:23:12;11.33;;;10.03;;
14554;SDS011;7364;50.870;4.722;2023-03-01T13:26:07;11.37;;;9.13;;
14554;SDS011;7364;50.870;4.722;2023-03-01T13:28:47;9.17;;;7.80;;
14554;SDS011;7364;50.870;4.722;2023-03-01T13:34:54;11.90;;;8.23;;
14554;SDS011;7364;50.870;4.722;2023-03-01T13:37:26;11.40;;;8.50;;
14554;SDS011;7364;50.870;4.722;2023-03-01T13:39:59;7.60;;;6.73;;
14554;SDS011;7364;50.870;4.722;2023-03-01T13:42:40;9.47;;;8.33;;
14554;SDS011;7364;50.870;4.722;2023-03-01T13:45:21;10.43;;;8.10;;
14554;SDS011;7364;50.870;4.722;2023-03-01T13:47:53;11.13;;;8.53;;
14554;SDS011;7364;50.870;4.722;2023-03-01T13:50:27;11.67;;;8.03;;
14554;SDS011;7364;50.870;4.722;2023-03-01T13:52:59;10.37;;;8.33;;
14554;SDS011;7364;50.870;4.722;2023-03-01T13:55:36;10.60;;;8.60;;
14554;SDS011;7364;50.870;4.722;2023-03-01T13:58:14;9.70;;;7.73;;
14554;SDS011;7364;50.870;4.722;2023-03-01T14:00:45;9.43;;;8.37;;
14554;SDS011;7364;50.870;4.722;2023-03-01T14:03:13;12.00;;;8.23;;
14554;SDS011;7364;50.870;4.722;2023-03-01T14:05:57;11.53;;;8.10;;
14554;SDS011;7364;50.870;4.722;2023-03-01T14:08:31;8.43;;;7.53;;
14554;SDS011;7364;50.870;4.722;2023-03-01T14:14:08;12.47;;;8.37;;
14554;SDS011;7364;50.870;4.722;2023-03-01T14:16:48;8.90;;;8.10;;
14554;SDS011;7364;50.870;4.722;2023-03-01T14:19:23;10.50;;;8.33;;
14554;SDS011;7364;50.870;4.722;2023-03-01T14:22:00;12.17;;;9.37;;
14554;SDS011;7364;50.870;4.722;2023-03-01T14:24:40;13.60;;;9.80;;
14554;SDS011;7364;50.870;4.722;2023-03-01T14:27:15;8.93;;;8.03;;
14554;SDS011;7364;50.870;4.722;2023-03-01T14:29:44;10.80;;;9.70;;
14554;SDS011;7364;50.870;4.722;2023-03-01T14:32:23;11.07;;;8.60;;
14554;SDS011;7364;50.870;4.722;2023-03-01T14:34:53;11.43;;;9.10;;
14554;SDS011;7364;50.870;4.722;2023-03-01T14:37:24;12.67;;;9.23;;
14554;SDS011;7364;50.870;4.722;2023-03-01T14:39:53;9.13;;;8.13;;
14554;SDS011;7364;50.870;4.722;2023-03-01T14:42:23;12.93;;;8.67;;
14554;SDS011;7364;50.870;4.722;2023-03-01T14:44:55;10.13;;;8.60;;
14554;SDS011;7364;50.870;4.722;2023-03-01T14:47:26;12.20;;;8.43;;
14554;SDS011;7364;50.870;4.722;2023-03-01T14:49:58;11.73;;;8.30;;
14554;SDS011;7364;50.870;4.722;2023-03-01T14:52:33;8.67;;;7.30;;
14554;SDS011;7364;50.870;4.722;2023-03-01T14:55:04;12.93;;;8.70;;
14554;SDS011;7364;50.870;4.722;2023-03-01T14:57:33;9.20;;;7.37;;
14554;SDS011;7364;50.870;4.722;2023-03-01T15:00:01;9.50;;;7.67;;
14554;SDS011;7364;50.870;4.722;2023-03-01T15:02:34;11.60;;;7.37;;
14554;SDS011;7364;50.870;4.722;2023-03-01T15:05:02;9.23;;;7.37;;
14554;SDS011;7364;50.870;4.722;2023-03-01T15:07:34;9.37;;;7.10;;
14554;SDS011;7364;50.870;4.722;2023-03-01T15:10:05;11.13;;;7.43;;
14554;SDS011;7364;50.870;4.722;2023-03-01T15:12:42;10.23;;;7.57;;
14554;SDS011;7364;50.870;4.722;2023-03-01T15:18:00;9.73;;;7.00;;
14554;SDS011;7364;50.870;4.722;2023-03-01T15:20:30;10.73;;;7.17;;
14554;SDS011;7364;50.870;4.722;2023-03-01T15:23:02;9.93;;;7.23;;
14554;SDS011;7364;50.870;4.722;2023-03-01T15:25:30;10.27;;;7.30;;
14554;SDS011;7364;50.870;4.722;2023-03-01T15:28:00;11.93;;;7.13;;
14554;SDS011;7364;50.870;4.722;2023-03-01T15:30:29;12.37;;;7.43;;
14554;SDS011;7364;50.870;4.722;2023-03-01T15:33:18;10.03;;;7.43;;
14554;SDS011;7364;50.870;4.722;2023-03-01T15:35:54;13.60;;;7.10;;